sensor_id;sensor_type;location;lat;lon;timestamp;pressure;altitude;pressure_sealevel;temperature;humidity
21276;BME280;36472;52.170;20.884;2023-03-04T00:01:44;100176.75;;;2.35;78.22
21276;BME280;36472;52.170;20.884;2023-03-04T00:04:15;100179.97;;;2.41;78.07
21276;BME280;36472;52.170;20.884;2023-03-04T00:06:45;100170.34;;;2.45;77.91
21276;BME280;36472;52.170;20.884;2023-03-04T00:09:15;100170.25;;;2.48;77.98
21276;BME280;36472;52.170;20.884;2023-03-04T00:11:43;100160.84;;;2.44;78.07
21276;BME280;36472;52.170;20.884;2023-03-04T00:14:13;100166.28;;;2.38;78.11
21276;BME280;36472;52.170;20.884;2023-03-04T00:16:42;100167.06;;;2.40;78.21
21276;BME280;36472;52.170;20.884;2023-03-04T00:19:11;100151.41;;;2.43;78.56
21276;BME280;36472;52.170;20.884;2023-03-04T00:21:41;100152.25;;;2.43;78.05
21276;BME280;36472;52.170;20.884;2023-03-04T00:24:10;100158.44;;;2.39;78.68
21276;BME280;36472;52.170;20.884;2023-03-04T00:26:39;100153.31;;;2.38;78.58
21276;BME280;36472;52.170;20.884;2023-03-04T00:29:08;100154.97;;;2.39;78.68
21276;BME280;36472;52.170;20.884;2023-03-04T00:31:37;100143.78;;;2.38;78.57
21276;BME280;36472;52.170;20.884;2023-03-04T00:34:07;100147.16;;;2.40;78.64
21276;BME280;36472;52.170;20.884;2023-03-04T00:36:36;100130.47;;;2.24;78.92
21276;BME280;36472;52.170;20.884;2023-03-04T00:39:06;100132.47;;;2.41;79.06
21276;BME280;36472;52.170;20.884;2023-03-04T00:41:35;100126.31;;;2.43;78.94
21276;BME280;36472;52.170;20.884;2023-03-04T00:44:05;100114.50;;;2.35;78.98
21276;BME280;36472;52.170;20.884;2023-03-04T00:46:34;100122.13;;;2.39;79.02
21276;BME280;36472;52.170;20.884;2023-03-04T00:49:03;100120.47;;;2.37;79.10
21276;BME280;36472;52.170;20.884;2023-03-04T00:51:33;100124.09;;;2.33;79.16
21276;BME280;36472;52.170;20.884;2023-03-04T00:54:02;100105.38;;;2.24;79.23
21276;BME280;36472;52.170;20.884;2023-03-04T00:56:32;100108.75;;;2.27;79.80
21276;BME280;36472;52.170;20.884;2023-03-04T00:59:01;100103.44;;;2.30;79.85
21276;BME280;36472;52.170;20.884;2023-03-04T01:01:31;100105.38;;;2.24;79.96
21276;BME280;36472;52.170;20.884;2023-03-04T01:04:01;100103.44;;;2.30;79.36
21276;BME280;36472;52.170;20.884;2023-03-04T01:06:30;100092.09;;;2.32;79.12
21276;BME280;36472;52.170;20.884;2023-03-04T01:08:59;100100.91;;;2.28;79.25
21276;BME280;36472;52.170;20.884;2023-03-04T01:11:29;100095.81;;;2.25;79.04
21276;BME280;36472;52.170;20.884;2023-03-04T01:14:00;100087.09;;;2.28;78.86
21276;BME280;36472;52.170;20.884;2023-03-04T01:16:29;100091.38;;;2.29;79.28
21276;BME280;36472;52.170;20.884;2023-03-04T01:18:58;100076.53;;;2.32;79.34
21276;BME280;36472;52.170;20.884;2023-03-04T01:21:27;100078.97;;;2.37;79.70
21276;BME280;36472;52.170;20.884;2023-03-04T01:23:56;100073.16;;;2.30;79.63
21276;BME280;36472;52.170;20.884;2023-03-04T01:26:25;100068.59;;;2.37;79.63
21276;BME280;36472;52.170;20.884;2023-03-04T01:28:54;100072.44;;;2.27;79.91
21276;BME280;36472;52.170;20.884;2023-03-04T01:31:25;100061.19;;;2.28;80.46
21276;BME280;36472;52.170;20.884;2023-03-04T01:33:54;100039.97;;;2.16;80.78
21276;BME280;36472;52.170;20.884;2023-03-04T01:36:23;100043.19;;;2.23;80.64
21276;BME280;36472;52.170;20.884;2023-03-04T01:38:52;100036.25;;;2.23;80.32
21276;BME280;36472;52.170;20.884;2023-03-04T01:41:25;100012.91;;;2.23;80.57
21276;BME280;36472;52.170;20.884;2023-03-04T01:43:55;99989.56;;;2.23;80.14
21276;BME280;36472;52.170;20.884;2023-03-04T01:46:29;99989.81;;;2.17;80.87
21276;BME280;36472;52.170;20.884;2023-03-04T01:48:59;99989.75;;;2.19;80.72
21276;BME280;36472;52.170;20.884;2023-03-04T01:51:28;99984.94;;;2.08;80.79
21276;BME280;36472;52.170;20.884;2023-03-04T01:53:57;99986.31;;;2.18;80.81
21276;BME280;36472;52.170;20.884;2023-03-04T01:56:30;99969.81;;;2.21;80.53
21276;BME280;36472;52.170;20.884;2023-03-04T01:59:22;99969.41;;;2.08;80.94
21276;BME280;36472;52.170;20.884;2023-03-04T02:01:55;99965.91;;;2.09;80.82
21276;BME280;36472;52.170;20.884;2023-03-04T02:04:27;99952.59;;;1.95;80.91
21276;BME280;36472;52.170;20.884;2023-03-04T02:06:58;99961.69;;;2.06;80.85
21276;BME280;36472;52.170;20.884;2023-03-04T02:09:30;99954.25;;;2.21;80.70
21276;BME280;36472;52.170;20.884;2023-03-04T02:12:00;99927.81;;;2.11;80.23
21276;BME280;36472;52.170;20.884;2023-03-04T02:14:30;99912.81;;;2.19;80.27
21276;BME280;36472;52.170;20.884;2023-03-04T02:17:00;99916.31;;;2.18;80.03
21276;BME280;36472;52.170;20.884;2023-03-04T02:19:41;99916.06;;;2.24;80.37
21276;BME280;36472;52.170;20.884;2023-03-04T02:22:12;99910.06;;;2.24;80.43
21276;BME280;36472;52.170;20.884;2023-03-04T02:24:48;99915.97;;;2.28;80.86
21276;BME280;36472;52.170;20.884;2023-03-04T02:27:19;99913.72;;;2.18;81.18
21276;BME280;36472;52.170;20.884;2023-03-04T02:29:49;99906.66;;;2.22;80.99
21276;BME280;36472;52.170;20.884;2023-03-04T02:32:18;99908.06;;;2.31;81.04
21276;BME280;36472;52.170;20.884;2023-03-04T02:34:49;99916.75;;;2.30;81.22
21276;BME280;36472;52.170;20.884;2023-03-04T02:37:21;99915.84;;;2.31;81.18
21276;BME280;36472;52.170;20.884;2023-03-04T02:39:53;99911.44;;;2.33;81.57
21276;BME280;36472;52.170;20.884;2023-03-04T02:42:23;99920.66;;;2.40;80.82
21276;BME280;36472;52.170;20.884;2023-03-04T02:45:00;99913.78;;;2.39;81.06
21276;BME280;36472;52.170;20.884;2023-03-04T02:47:29;99932.81;;;2.39;81.20
21276;BME280;36472;52.170;20.884;2023-03-04T02:49:58;99917.84;;;2.46;81.20
21276;BME280;36472;52.170;20.884;2023-03-04T02:52:27;99919.63;;;2.44;80.55
21276;BME280;36472;52.170;20.884;2023-03-04T02:54:57;99922.22;;;2.44;81.01
21276;BME280;36472;52.170;20.884;2023-03-04T02:57:27;99922.66;;;2.55;80.74
21276;BME280;36472;52.170;20.884;2023-03-04T02:59:57;99925.25;;;2.55;80.93
21276;BME280;36472;52.170;20.884;2023-03-04T03:02:27;99916.75;;;2.52;80.67
21276;BME280;36472;52.170;20.884;2023-03-04T03:04:57;99915.78;;;2.54;81.08
21276;BME280;36472;52.170;20.884;2023-03-04T03:07:26;99912.06;;;2.61;80.77
21276;BME280;36472;52.170;20.884;2023-03-04T03:09:56;99916.97;;;2.68;80.38
21276;BME280;36472;52.170;20.884;2023-03-04T03:12:26;99910.28;;;2.62;80.65
21276;BME280;36472;52.170;20.884;2023-03-04T03:14:55;99914.44;;;2.66;80.30
21276;BME280;36472;52.170;20.884;2023-03-04T03:17:25;99907.47;;;2.68;80.62
21276;BME280;36472;52.170;20.884;2023-03-04T03:19:54;99899.78;;;2.65;80.57
21276;BME280;36472;52.170;20.884;2023-03-04T03:22:23;99904.06;;;2.66;80.67
21276;BME280;36472;52.170;20.884;2023-03-04T03:24:53;99897.75;;;2.73;80.52
21276;BME280;36472;52.170;20.884;2023-03-04T03:27:22;99894.88;;;2.79;79.93
21276;BME280;36472;52.170;20.884;2023-03-04T03:29:52;99889.63;;;2.81;80.03
21276;BME280;36472;52.170;20.884;2023-03-04T03:32:21;99886.50;;;2.73;80.26
21276;BME280;36472;52.170;20.884;2023-03-04T03:34:51;99897.41;;;2.81;80.28
21276;BME280;36472;52.170;20.884;2023-03-04T03:37:20;99881.72;;;2.84;79.46
21276;BME280;36472;52.170;20.884;2023-03-04T03:39:49;99878.28;;;2.84;79.77
21276;BME280;36472;52.170;20.884;2023-03-04T03:42:18;99882.56;;;2.85;79.47
21276;BME280;36472;52.170;20.884;2023-03-04T03:44:47;99879.00;;;2.87;79.59
21276;BME280;36472;52.170;20.884;2023-03-04T03:47:18;99876.47;;;2.86;80.07
21276;BME280;36472;52.170;20.884;2023-03-04T03:49:47;99871.28;;;2.86;79.52
21276;BME280;36472;52.170;20.884;2023-03-04T03:52:16;99877.00;;;2.94;79.60
21276;BME280;36472;52.170;20.884;2023-03-04T03:54:45;99878.59;;;2.96;79.49
21276;BME280;36472;52.170;20.884;2023-03-04T03:57:14;99872.81;;;2.90;79.24
21276;BME280;36472;52.170;20.884;2023-03-04T03:59:43;99869.38;;;2.89;79.44
21276;BME280;36472;52.170;20.884;2023-03-04T04:02:11;99877.06;;;2.92;79.53
21276;BME280;36472;52.170;20.884;2023-03-04T04:04:42;99861.53;;;2.91;79.50
21276;BME280;36472;52.170;20.884;2023-03-04T04:07:11;99871.16;;;2.89;79.81
21276;BME280;36472;52.170;20.884;2023-03-04T04:09:40;99868.34;;;2.93;79.63
21276;BME280;36472;52.170;20.884;2023-03-04T04:12:10;99869.13;;;2.95;79.38
21276;BME280;36472;52.170;20.884;2023-03-04T04:14:41;99867.44;;;2.94;79.54
21276;BME280;36472;52.170;20.884;2023-03-04T04:17:11;99868.22;;;2.96;79.39
21276;BME280;36472;52.170;20.884;2023-03-04T04:19:42;99867.31;;;2.97;79.70
21276;BME280;36472;52.170;20.884;2023-03-04T04:22:14;99866.22;;;3.03;79.06
21276;BME280;36472;52.170;20.884;2023-03-04T04:24:44;99854.00;;;3.05;78.94
21276;BME280;36472;52.170;20.884;2023-03-04T04:27:13;99871.22;;;3.08;79.35
21276;BME280;36472;52.170;20.884;2023-03-04T04:29:42;99870.09;;;3.13;78.62
21276;BME280;36472;52.170;20.884;2023-03-04T04:32:11;99858.34;;;3.05;78.86
21276;BME280;36472;52.170;20.884;2023-03-04T04:34:42;99862.56;;;3.07;78.82
21276;BME280;36472;52.170;20.884;2023-03-04T04:37:11;99857.31;;;3.09;79.17
21276;BME280;36472;52.170;20.884;2023-03-04T04:39:40;99856.53;;;3.07;78.91
21276;BME280;36472;52.170;20.884;2023-03-04T04:42:10;99860.25;;;3.01;79.21
21276;BME280;36472;52.170;20.884;2023-03-04T04:44:39;99854.59;;;3.12;79.23
21276;BME280;36472;52.170;20.884;2023-03-04T04:47:09;99848.97;;;3.21;78.90
21276;BME280;36472;52.170;20.884;2023-03-04T04:49:38;99856.69;;;3.23;78.50
21276;BME280;36472;52.170;20.884;2023-03-04T04:52:08;99844.84;;;3.17;78.63
21276;BME280;36472;52.170;20.884;2023-03-04T04:54:37;99848.34;;;3.16;78.44
21276;BME280;36472;52.170;20.884;2023-03-04T04:57:06;99848.28;;;3.17;78.47
21276;BME280;36472;52.170;20.884;2023-03-04T04:59:35;99846.53;;;3.18;78.42
21276;BME280;36472;52.170;20.884;2023-03-04T05:02:04;99845.91;;;3.13;78.36
21276;BME280;36472;52.170;20.884;2023-03-04T05:04:33;99846.47;;;3.20;78.65
21276;BME280;36472;52.170;20.884;2023-03-04T05:07:02;99847.44;;;3.17;78.28
21276;BME280;36472;52.170;20.884;2023-03-04T05:09:32;99848.84;;;3.24;78.05
21276;BME280;36472;52.170;20.884;2023-03-04T05:12:01;99833.63;;;3.16;78.24
21276;BME280;36472;52.170;20.884;2023-03-04T05:14:30;99840.34;;;3.21;78.60
21276;BME280;36472;52.170;20.884;2023-03-04T05:16:59;99831.31;;;3.29;78.10
21276;BME280;36472;52.170;20.884;2023-03-04T05:19:28;99836.44;;;3.31;78.12
21276;BME280;36472;52.170;20.884;2023-03-04T05:21:57;99831.88;;;3.36;77.58
21276;BME280;36472;52.170;20.884;2023-03-04T05:24:26;99831.56;;;3.44;77.26
21276;BME280;36472;52.170;20.884;2023-03-04T05:26:56;99829.94;;;3.41;77.14
21276;BME280;36472;52.170;20.884;2023-03-04T05:29:25;99825.59;;;3.42;77.47
21276;BME280;36472;52.170;20.884;2023-03-04T05:31:54;99822.06;;;3.43;77.41
21276;BME280;36472;52.170;20.884;2023-03-04T05:34:23;99817.63;;;3.45;77.17
21276;BME280;36472;52.170;20.884;2023-03-04T05:36:52;99822.69;;;3.48;76.90
21276;BME280;36472;52.170;20.884;2023-03-04T05:39:21;99824.53;;;3.46;77.49
21276;BME280;36472;52.170;20.884;2023-03-04T05:41:50;99815.97;;;3.44;76.95
21276;BME280;36472;52.170;20.884;2023-03-04T05:44:21;99830.63;;;3.45;77.43
21276;BME280;36472;52.170;20.884;2023-03-04T05:46:49;99828.97;;;3.44;77.67
21276;BME280;36472;52.170;20.884;2023-03-04T05:49:19;99826.38;;;3.44;77.65
21276;BME280;36472;52.170;20.884;2023-03-04T05:51:48;99827.25;;;3.43;77.69
21276;BME280;36472;52.170;20.884;2023-03-04T05:54:17;99824.38;;;3.30;78.30
21276;BME280;36472;52.170;20.884;2023-03-04T05:56:46;99820.78;;;3.32;77.90
21276;BME280;36472;52.170;20.884;2023-03-04T05:59:15;99813.50;;;3.41;77.95
21276;BME280;36472;52.170;20.884;2023-03-04T06:01:48;99806.78;;;3.36;77.95
21276;BME280;36472;52.170;20.884;2023-03-04T06:04:17;99806.97;;;3.32;78.28
21276;BME280;36472;52.170;20.884;2023-03-04T06:06:46;99817.88;;;3.40;78.22
21276;BME280;36472;52.170;20.884;2023-03-04T06:09:15;99815.41;;;3.37;77.98
21276;BME280;36472;52.170;20.884;2023-03-04T06:11:44;99807.53;;;3.39;78.03
21276;BME280;36472;52.170;20.884;2023-03-04T06:14:14;99809.28;;;3.38;78.17
21276;BME280;36472;52.170;20.884;2023-03-04T06:16:43;99804.81;;;3.42;78.26
21276;BME280;36472;52.170;20.884;2023-03-04T06:19:13;99799.81;;;3.37;78.34
21276;BME280;36472;52.170;20.884;2023-03-04T06:21:42;99798.97;;;3.36;78.44
21276;BME280;36472;52.170;20.884;2023-03-04T06:24:11;99796.78;;;3.27;78.91
21276;BME280;36472;52.170;20.884;2023-03-04T06:26:40;99798.88;;;3.19;78.93
21276;BME280;36472;52.170;20.884;2023-03-04T06:29:09;99795.94;;;3.27;79.19
21276;BME280;36472;52.170;20.884;2023-03-04T06:31:38;99800.78;;;3.34;79.03
21276;BME280;36472;52.170;20.884;2023-03-04T06:34:09;99803.53;;;3.31;78.70
21276;BME280;36472;52.170;20.884;2023-03-04T06:36:39;99802.47;;;3.35;78.84
21276;BME280;36472;52.170;20.884;2023-03-04T06:39:09;99798.34;;;3.31;78.50
21276;BME280;36472;52.170;20.884;2023-03-04T06:41:38;99792.28;;;3.31;78.73
21276;BME280;36472;52.170;20.884;2023-03-04T06:44:07;99792.28;;;3.31;79.11
21276;BME280;36472;52.170;20.884;2023-03-04T06:46:36;99793.22;;;3.30;79.16
21276;BME280;36472;52.170;20.884;2023-03-04T06:49:05;99792.78;;;3.39;78.93
21276;BME280;36472;52.170;20.884;2023-03-04T06:51:34;99803.13;;;3.41;78.65
21276;BME280;36472;52.170;20.884;2023-03-04T06:54:05;99803.75;;;3.46;78.62
21276;BME280;36472;52.170;20.884;2023-03-04T06:56:33;99803.13;;;3.41;78.41
21276;BME280;36472;52.170;20.884;2023-03-04T06:59:03;99795.31;;;3.41;78.57
21276;BME280;36472;52.170;20.884;2023-03-04T07:01:31;99805.84;;;3.37;78.57
21276;BME280;36472;52.170;20.884;2023-03-04T07:04:01;99797.91;;;3.41;78.78
21276;BME280;36472;52.170;20.884;2023-03-04T07:06:30;99793.63;;;3.40;78.60
21276;BME280;36472;52.170;20.884;2023-03-04T07:08:59;99798.81;;;3.40;78.73
21276;BME280;36472;52.170;20.884;2023-03-04T07:11:30;99805.84;;;3.37;78.81
21276;BME280;36472;52.170;20.884;2023-03-04T07:13:59;99803.94;;;3.41;78.23
21276;BME280;36472;52.170;20.884;2023-03-04T07:16:28;99805.50;;;3.45;77.97
21276;BME280;36472;52.170;20.884;2023-03-04T07:18:57;99804.44;;;3.49;78.07
21276;BME280;36472;52.170;20.884;2023-03-04T07:21:26;99807.03;;;3.49;78.39
21276;BME280;36472;52.170;20.884;2023-03-04T07:23:56;99794.75;;;3.53;77.71
21276;BME280;36472;52.170;20.884;2023-03-04T07:26:24;99794.81;;;3.51;77.68
21276;BME280;36472;52.170;20.884;2023-03-04T07:28:55;99799.75;;;3.58;77.63
21276;BME280;36472;52.170;20.884;2023-03-04T07:31:28;99784.28;;;3.54;77.41
21276;BME280;36472;52.170;20.884;2023-03-04T07:34:01;99782.34;;;3.60;77.49
21276;BME280;36472;52.170;20.884;2023-03-04T07:36:30;99778.13;;;3.57;76.98
21276;BME280;36472;52.170;20.884;2023-03-04T07:39:00;99789.22;;;3.61;76.92
21276;BME280;36472;52.170;20.884;2023-03-04T07:41:30;99784.38;;;3.53;77.28
21276;BME280;36472;52.170;20.884;2023-03-04T07:44:06;99777.28;;;3.56;77.06
21276;BME280;36472;52.170;20.884;2023-03-04T07:46:39;99775.53;;;3.57;76.90
21276;BME280;36472;52.170;20.884;2023-03-04T07:49:11;99778.13;;;3.57;76.93
21276;BME280;36472;52.170;20.884;2023-03-04T07:51:40;99773.63;;;3.61;76.70
21276;BME280;36472;52.170;20.884;2023-03-04T07:54:09;99772.13;;;3.55;77.16
21276;BME280;36472;52.170;20.884;2023-03-04T07:56:38;99758.75;;;3.64;76.60
21276;BME280;36472;52.170;20.884;2023-03-04T07:59:09;99763.16;;;3.62;76.41
21276;BME280;36472;52.170;20.884;2023-03-04T08:01:38;99760.34;;;3.67;76.65
21276;BME280;36472;52.170;20.884;2023-03-04T08:04:07;99763.00;;;3.65;76.17
21276;BME280;36472;52.170;20.884;2023-03-04T08:06:38;99767.16;;;3.69;76.21
21276;BME280;36472;52.170;20.884;2023-03-04T08:09:10;99763.50;;;3.73;76.19
21276;BME280;36472;52.170;20.884;2023-03-04T08:11:41;99753.09;;;3.73;75.86
21276;BME280;36472;52.170;20.884;2023-03-04T08:14:12;99758.16;;;3.77;75.49
21276;BME280;36472;52.170;20.884;2023-03-04T08:16:41;99758.28;;;3.73;75.56
21276;BME280;36472;52.170;20.884;2023-03-04T08:19:11;99751.56;;;3.69;75.69
21276;BME280;36472;52.170;20.884;2023-03-04T08:21:40;99756.31;;;3.79;75.73
21276;BME280;36472;52.170;20.884;2023-03-04T08:24:10;99750.78;;;3.86;75.37
21276;BME280;36472;52.170;20.884;2023-03-04T08:26:44;99761.25;;;3.85;75.28
21276;BME280;36472;52.170;20.884;2023-03-04T08:29:19;99752.75;;;3.81;75.40
21276;BME280;36472;52.170;20.884;2023-03-04T08:31:50;99749.06;;;3.85;74.95
21276;BME280;36472;52.170;20.884;2023-03-04T08:34:23;99739.50;;;3.86;75.13
21276;BME280;36472;52.170;20.884;2023-03-04T08:36:53;99748.88;;;3.90;75.29
21276;BME280;36472;52.170;20.884;2023-03-04T08:39:22;99743.94;;;3.84;75.29
21276;BME280;36472;52.170;20.884;2023-03-04T08:41:51;99753.78;;;3.77;75.23
21276;BME280;36472;52.170;20.884;2023-03-04T08:44:21;99740.59;;;3.82;75.61
21276;BME280;36472;52.170;20.884;2023-03-04T08:46:53;99744.31;;;3.76;75.69
21276;BME280;36472;52.170;20.884;2023-03-04T08:49:22;99746.06;;;3.75;76.12
21276;BME280;36472;52.170;20.884;2023-03-04T08:51:51;99731.94;;;3.81;75.84
21276;BME280;36472;52.170;20.884;2023-03-04T08:54:20;99739.44;;;3.87;75.77
21276;BME280;36472;52.170;20.884;2023-03-04T08:56:49;99737.16;;;3.81;76.00
21276;BME280;36472;52.170;20.884;2023-03-04T08:59:18;99737.91;;;3.83;75.94
21276;BME280;36472;52.170;20.884;2023-03-04T09:01:48;99735.53;;;3.79;76.28
21276;BME280;36472;52.170;20.884;2023-03-04T09:04:17;99738.69;;;3.85;75.88
21276;BME280;36472;52.170;20.884;2023-03-04T09:06:46;99733.28;;;3.90;75.92
21276;BME280;36472;52.170;20.884;2023-03-04T09:09:15;99728.91;;;3.90;75.78
21276;BME280;36472;52.170;20.884;2023-03-04T09:11:44;99725.59;;;3.87;76.17
21276;BME280;36472;52.170;20.884;2023-03-04T09:14:13;99732.03;;;3.80;76.27
21276;BME280;36472;52.170;20.884;2023-03-04T09:16:42;99727.94;;;3.93;75.91
21276;BME280;36472;52.170;20.884;2023-03-04T09:19:13;99714.75;;;3.96;75.80
21276;BME280;36472;52.170;20.884;2023-03-04T09:21:42;99718.97;;;3.99;75.96
21276;BME280;36472;52.170;20.884;2023-03-04T09:24:11;99697.97;;;4.03;76.46
21276;BME280;36472;52.170;20.884;2023-03-04T09:26:39;99708.78;;;4.11;75.77
21276;BME280;36472;52.170;20.884;2023-03-04T09:29:09;99702.47;;;4.17;75.69
21276;BME280;36472;52.170;20.884;2023-03-04T09:31:38;99704.66;;;4.25;75.29
21276;BME280;36472;52.170;20.884;2023-03-04T09:34:07;99710.19;;;4.36;74.95
21276;BME280;36472;52.170;20.884;2023-03-04T09:36:37;99696.56;;;4.31;74.58
21276;BME280;36472;52.170;20.884;2023-03-04T09:39:06;99696.78;;;4.26;75.20
21276;BME280;36472;52.170;20.884;2023-03-04T09:41:40;99691.81;;;4.22;74.78
21276;BME280;36472;52.170;20.884;2023-03-04T09:44:21;99704.66;;;4.25;75.49
21276;BME280;36472;52.170;20.884;2023-03-04T09:46:50;99692.59;;;4.24;75.20
21276;BME280;36472;52.170;20.884;2023-03-04T09:49:21;99696.56;;;4.31;75.30
21276;BME280;36472;52.170;20.884;2023-03-04T09:51:59;99690.22;;;4.37;74.78
21276;BME280;36472;52.170;20.884;2023-03-04T09:54:51;99678.03;;;4.37;74.91
21276;BME280;36472;52.170;20.884;2023-03-04T09:57:39;99683.09;;;4.40;74.96
21276;BME280;36472;52.170;20.884;2023-03-04T10:00:15;99678.41;;;4.47;74.51
21276;BME280;36472;52.170;20.884;2023-03-04T10:03:04;99674.34;;;4.59;74.81
21276;BME280;36472;52.170;20.884;2023-03-04T10:05:41;99672.50;;;4.61;74.21
21276;BME280;36472;52.170;20.884;2023-03-04T10:08:32;99673.28;;;4.63;74.11
21276;BME280;36472;52.170;20.884;2023-03-04T10:11:10;99671.66;;;4.60;73.83
21276;BME280;36472;52.170;20.884;2023-03-04T10:13:53;99666.53;;;4.59;73.58
21276;BME280;36472;52.170;20.884;2023-03-04T10:16:31;99667.38;;;4.59;74.02
21276;BME280;36472;52.170;20.884;2023-03-04T10:19:20;99663.78;;;4.62;73.71
21276;BME280;36472;52.170;20.884;2023-03-04T10:21:52;99666.59;;;4.57;73.93
21276;BME280;36472;52.170;20.884;2023-03-04T10:24:28;99656.88;;;4.61;73.50
21276;BME280;36472;52.170;20.884;2023-03-04T10:27:05;99669.81;;;4.62;73.74
21276;BME280;36472;52.170;20.884;2023-03-04T10:29:37;99663.63;;;4.65;73.94
21276;BME280;36472;52.170;20.884;2023-03-04T10:32:11;99655.66;;;4.68;73.72
21276;BME280;36472;52.170;20.884;2023-03-04T10:34:42;99652.56;;;4.77;73.49
21276;BME280;36472;52.170;20.884;2023-03-04T10:37:11;99647.59;;;4.73;73.99
21276;BME280;36472;52.170;20.884;2023-03-04T10:39:44;99648.84;;;4.81;73.38
21276;BME280;36472;52.170;20.884;2023-03-04T10:42:27;99638.03;;;4.73;73.42
21276;BME280;36472;52.170;20.884;2023-03-04T10:44:59;99637.59;;;4.65;73.75
21276;BME280;36472;52.170;20.884;2023-03-04T10:47:31;99627.84;;;4.68;74.52
21276;BME280;36472;52.170;20.884;2023-03-04T10:50:04;99629.97;;;4.78;75.16
21276;BME280;36472;52.170;20.884;2023-03-04T10:52:38;99622.19;;;4.94;74.92
21276;BME280;36472;52.170;20.884;2023-03-04T10:55:16;99616.03;;;4.95;75.32
21276;BME280;36472;52.170;20.884;2023-03-04T10:57:49;99612.41;;;4.81;75.89
21276;BME280;36472;52.170;20.884;2023-03-04T11:00:27;99619.88;;;4.72;76.58
21276;BME280;36472;52.170;20.884;2023-03-04T11:03:22;99613.66;;;4.74;77.17
21276;BME280;36472;52.170;20.884;2023-03-04T11:06:15;99608.97;;;4.65;77.72
21276;BME280;36472;52.170;20.884;2023-03-04T11:08:54;99616.78;;;4.81;77.46
21276;BME280;36472;52.170;20.884;2023-03-04T11:11:30;99617.13;;;4.91;77.34
21276;BME280;36472;52.170;20.884;2023-03-04T11:14:11;99608.56;;;4.89;77.74
21276;BME280;36472;52.170;20.884;2023-03-04T11:16:53;99606.13;;;4.85;77.78
21276;BME280;36472;52.170;20.884;2023-03-04T11:19:28;99609.41;;;4.89;77.17
21276;BME280;36472;52.170;20.884;2023-03-04T11:21:59;99607.78;;;4.86;77.40
21276;BME280;36472;52.170;20.884;2023-03-04T11:24:31;99608.22;;;4.95;78.11
21276;BME280;36472;52.170;20.884;2023-03-04T11:27:10;99596.22;;;4.92;78.02
21276;BME280;36472;52.170;20.884;2023-03-04T11:29:50;99598.31;;;5.01;77.67
21276;BME280;36472;52.170;20.884;2023-03-04T11:32:23;99594.13;;;4.99;77.92
21276;BME280;36472;52.170;20.884;2023-03-04T11:35:01;99589.09;;;4.96;77.70
21276;BME280;36472;52.170;20.884;2023-03-04T11:37:40;99596.47;;;5.03;78.01
21276;BME280;36472;52.170;20.884;2023-03-04T11:40:17;99585.53;;;4.97;77.65
21276;BME280;36472;52.170;20.884;2023-03-04T11:42:57;99598.75;;;4.94;78.47
21276;BME280;36472;52.170;20.884;2023-03-04T11:46:04;99592.59;;;4.95;79.27
21276;BME280;36472;52.170;20.884;2023-03-04T11:48:49;99583.38;;;4.89;79.06
21276;BME280;36472;52.170;20.884;2023-03-04T11:51:26;99585.38;;;4.84;79.02
21276;BME280;36472;52.170;20.884;2023-03-04T11:54:16;99583.59;;;4.84;79.51
21276;BME280;36472;52.170;20.884;2023-03-04T11:56:56;99576.97;;;4.95;79.84
21276;BME280;36472;52.170;20.884;2023-03-04T12:00:03;99579.25;;;5.01;80.19
21276;BME280;36472;52.170;20.884;2023-03-04T12:02:49;99583.94;;;4.94;80.24
21276;BME280;36472;52.170;20.884;2023-03-04T12:05:31;99582.34;;;4.92;80.54
21276;BME280;36472;52.170;20.884;2023-03-04T12:08:20;99582.53;;;4.89;81.31
21276;BME280;36472;52.170;20.884;2023-03-04T12:11:01;99582.34;;;4.92;81.65
21276;BME280;36472;52.170;20.884;2023-03-04T12:20:34;99575.38;;;4.92;81.88
21276;BME280;36472;52.170;20.884;2023-03-04T12:23:26;99566.97;;;4.71;83.49
21276;BME280;36472;52.170;20.884;2023-03-04T12:26:06;99579.47;;;4.64;84.27
21276;BME280;36472;52.170;20.884;2023-03-04T12:28:54;99572.59;;;4.63;84.76
21276;BME280;36472;52.170;20.884;2023-03-04T12:31:35;99580.47;;;4.46;85.90
21276;BME280;36472;52.170;20.884;2023-03-04T12:34:35;99595.91;;;4.49;86.76
21276;BME280;36472;52.170;20.884;2023-03-04T12:37:41;99593.16;;;4.19;88.01
21276;BME280;36472;52.170;20.884;2023-03-04T12:40:31;99585.81;;;4.09;88.80
21276;BME280;36472;52.170;20.884;2023-03-04T12:43:25;99591.28;;;4.05;89.53
21276;BME280;36472;52.170;20.884;2023-03-04T12:46:06;99595.94;;;3.98;90.38
21276;BME280;36472;52.170;20.884;2023-03-04T12:48:42;99598.69;;;4.12;91.65
21276;BME280;36472;52.170;20.884;2023-03-04T12:51:28;99586.34;;;4.16;91.60
21276;BME280;36472;52.170;20.884;2023-03-04T12:54:19;99591.94;;;4.26;91.51
21276;BME280;36472;52.170;20.884;2023-03-04T12:56:59;99581.53;;;4.26;91.27
21276;BME280;36472;52.170;20.884;2023-03-04T12:59:36;99585.19;;;4.22;91.20
21276;BME280;36472;52.170;20.884;2023-03-04T13:02:40;99584.28;;;4.23;91.04
21276;BME280;36472;52.170;20.884;2023-03-04T13:05:35;99568.66;;;4.23;91.07
21276;BME280;36472;52.170;20.884;2023-03-04T13:08:23;99573.72;;;4.26;91.07
21276;BME280;36472;52.170;20.884;2023-03-04T13:11:02;99560.22;;;4.35;91.87
21276;BME280;36472;52.170;20.884;2023-03-04T13:13:39;99552.19;;;4.56;92.25
21276;BME280;36472;52.170;20.884;2023-03-04T13:16:30;99557.41;;;4.72;91.10
21276;BME280;36472;52.170;20.884;2023-03-04T13:18:59;99556.47;;;4.73;90.25
21276;BME280;36472;52.170;20.884;2023-03-04T13:21:31;99552.81;;;4.77;90.18
21276;BME280;36472;52.170;20.884;2023-03-04T13:24:44;99570.75;;;4.81;89.35
21276;BME280;36472;52.170;20.884;2023-03-04T13:27:48;99574.38;;;4.79;88.82
21276;BME280;36472;52.170;20.884;2023-03-04T13:34:02;99564.31;;;4.89;87.70
21276;BME280;36472;52.170;20.884;2023-03-04T13:36:53;99569.81;;;4.98;86.69
21276;BME280;36472;52.170;20.884;2023-03-04T13:39:31;99575.38;;;4.92;85.90
21276;BME280;36472;52.170;20.884;2023-03-04T13:42:04;99562.09;;;5.13;86.17